createdAt,value
2017-01-27T00:00:30.720Z,88.23
2017-01-27T00:01:36.889Z,88.42
2017-01-27T00:02:43.055Z,88.32
2017-01-27T00:03:49.225Z,88.32
2017-01-27T00:04:54.431Z,88.09
2017-01-27T00:05:59.605Z,88.37
2017-01-27T00:07:05.785Z,88.13
2017-01-27T00:08:10.995Z,88.18
2017-01-27T00:09:13.284Z,88.18
2017-01-27T00:10:19.453Z,88.7
2017-01-27T00:11:24.671Z,88.65
2017-01-27T00:12:30.832Z,88.75
2017-01-27T00:13:35.027Z,88.93
2017-01-27T00:14:41.225Z,88.84
2017-01-27T00:15:47.384Z,88.75
2017-01-27T00:16:53.542Z,88.98
2017-01-27T00:17:57.741Z,89.03
2017-01-27T00:19:03.952Z,88.84
2017-01-27T00:20:09.113Z,88.65
2017-01-27T00:21:15.283Z,88.65
2017-01-27T00:22:20.494Z,88.7
2017-01-27T00:23:26.648Z,88.65
2017-01-27T00:24:31.844Z,88.65
2017-01-27T00:25:38.030Z,88.84
2017-01-27T00:26:43.216Z,88.65
2017-01-27T00:27:48.486Z,88.75
2017-01-27T00:28:53.681Z,88.75
2017-01-27T00:29:57.913Z,88.28
2017-01-27T00:31:01.144Z,88.28
2017-01-27T00:32:06.369Z,88.37
2017-01-27T00:33:11.561Z,88.56
2017-01-27T00:34:16.841Z,88.75
2017-01-27T00:35:23.002Z,87.9
2017-01-27T00:36:27.233Z,87.9
2017-01-27T00:37:31.405Z,87.95
2017-01-27T00:38:37.571Z,88.37
2017-01-27T00:39:42.802Z,88.23
2017-01-27T00:40:47.985Z,88.23
2017-01-27T00:41:53.150Z,88.37
2017-01-27T00:42:57.373Z,88.37
2017-01-27T00:44:01.573Z,88.28
2017-01-27T00:45:07.846Z,88.28
2017-01-27T00:46:13.047Z,88.32
2017-01-27T00:47:17.239Z,88.28
2017-01-27T00:48:23.417Z,88.56
2017-01-27T00:49:27.623Z,88.65
2017-01-27T00:50:33.789Z,88.46
2017-01-27T00:51:39.986Z,88.09
2017-01-27T00:52:45.180Z,88.28
2017-01-27T00:53:50.334Z,88.18
2017-01-27T00:54:55.536Z,87.95
2017-01-27T00:56:01.711Z,88.09
2017-01-27T00:57:06.957Z,88.04
2017-01-27T00:58:13.070Z,87.9
2017-01-27T00:59:19.240Z,88.75
2017-01-27T01:00:24.443Z,88.04
2017-01-27T01:01:29.631Z,88.46
2017-01-27T01:02:35.786Z,88.46
2017-01-27T01:03:40.986Z,88.46
2017-01-27T01:04:46.186Z,88.23
2017-01-27T01:05:52.394Z,88.51
2017-01-27T01:06:57.524Z,88.13
2017-01-27T01:08:02.719Z,88.09
2017-01-27T01:09:08.884Z,88.09
2017-01-27T01:10:14.073Z,88.18
2017-01-27T01:11:20.288Z,88.18
2017-01-27T01:12:26.424Z,88.28
2017-01-27T01:13:31.588Z,88.18
2017-01-27T01:14:37.733Z,88.28
2017-01-27T01:15:43.912Z,88.46
2017-01-27T01:16:50.112Z,88.23
2017-01-27T01:17:56.239Z,88.42
2017-01-27T01:19:00.486Z,88.37
2017-01-27T01:20:06.642Z,88.37
2017-01-27T01:21:11.838Z,87.9
2017-01-27T01:22:16.075Z,88.09
2017-01-27T01:23:21.291Z,88.23
2017-01-27T01:24:27.449Z,88.13
2017-01-27T01:25:32.642Z,88.32
2017-01-27T01:26:37.837Z,88.04
2017-01-27T01:27:44.017Z,88.23
2017-01-27T01:28:50.179Z,87.9
2017-01-27T01:29:56.382Z,87.99
2017-01-27T01:31:00.540Z,88.37
2017-01-27T01:32:05.711Z,87.9
2017-01-27T01:33:10.869Z,88.28
2017-01-27T01:34:14.224Z,87.9
2017-01-27T01:35:20.384Z,87.9
2017-01-27T01:36:23.632Z,87.99
2017-01-27T01:37:29.788Z,87.52
2017-01-27T01:38:34.981Z,87.71
2017-01-27T01:39:40.191Z,87.99
2017-01-27T01:40:45.405Z,87.71
2017-01-27T01:41:49.615Z,87.8
2017-01-27T01:42:54.821Z,87.71
2017-01-27T01:43:59.993Z,87.8
2017-01-27T01:45:05.208Z,87.43
2017-01-27T01:46:11.337Z,87.33
2017-01-27T01:47:16.505Z,87.33
2017-01-27T01:48:22.771Z,87.24
2017-01-27T01:49:28.930Z,87.43
2017-01-27T01:50:34.164Z,87.14
2017-01-27T01:51:39.323Z,87.52
2017-01-27T01:52:45.484Z,87.33
2017-01-27T01:53:51.648Z,87.24
2017-01-27T01:54:55.877Z,86.95
2017-01-27T01:56:02.039Z,86.86
2017-01-27T01:57:08.200Z,86.95
2017-01-27T01:58:13.396Z,87.05
2017-01-27T01:59:16.621Z,86.86
2017-01-27T02:00:22.895Z,86.86
2017-01-27T02:01:27.125Z,86.95
2017-01-27T02:02:31.352Z,86.67
2017-01-27T02:03:36.543Z,86.86
2017-01-27T02:04:40.738Z,86.76
2017-01-27T02:05:46.896Z,86.86
2017-01-27T02:06:52.108Z,86.48
2017-01-27T02:07:58.269Z,86.95
2017-01-27T02:09:03.472Z,86.95
2017-01-27T02:10:09.656Z,86.86
2017-01-27T02:11:15.859Z,86.57
2017-01-27T02:12:21.017Z,86.67
2017-01-27T02:13:25.258Z,86.67
2017-01-27T02:14:31.425Z,86.67
2017-01-27T02:15:35.695Z,86.1
2017-01-27T02:16:39.913Z,86.01
2017-01-27T02:17:45.071Z,86.01
2017-01-27T02:18:50.239Z,86.01
2017-01-27T02:19:55.434Z,86.1
2017-01-27T02:21:00.630Z,85.53
2017-01-27T02:22:06.801Z,85.72
2017-01-27T02:23:12.959Z,85.53
2017-01-27T02:24:19.123Z,85.16
2017-01-27T02:25:25.315Z,85.16
2017-01-27T02:26:30.529Z,85.16
2017-01-27T02:27:35.696Z,85.16
2017-01-27T02:28:41.910Z,85.16
2017-01-27T02:29:47.077Z,85.16
2017-01-27T02:30:53.241Z,85.16
2017-01-27T02:31:59.433Z,85.44
2017-01-27T02:33:03.644Z,85.63
2017-01-27T02:34:08.834Z,85.72
2017-01-27T02:35:14.996Z,85.63
2017-01-27T02:36:21.158Z,85.72
2017-01-27T02:37:25.387Z,85.72
2017-01-27T02:38:31.558Z,85.72
2017-01-27T02:39:37.713Z,85.53
2017-01-27T02:40:43.884Z,85.63
2017-01-27T02:41:49.076Z,85.44
2017-01-27T02:42:54.269Z,85.63
2017-01-27T02:44:00.533Z,85.53
2017-01-27T02:46:09.931Z,85.63
2017-01-27T02:47:16.100Z,85.63
2017-01-27T02:48:20.291Z,85.63
2017-01-27T02:49:24.566Z,85.63
2017-01-27T02:50:28.874Z,85.53
2017-01-27T02:51:35.096Z,85.82
2017-01-27T02:52:40.196Z,85.25
2017-01-27T02:53:44.429Z,85.16
2017-01-27T02:54:49.618Z,85.16
2017-01-27T02:55:54.848Z,85.44
2017-01-27T02:57:00.022Z,85.53
2017-01-27T02:58:06.230Z,85.16
2017-01-27T02:59:12.376Z,85.16
2017-01-27T03:00:17.518Z,85.06
2017-01-27T03:01:22.708Z,85.16
2017-01-27T03:02:27.879Z,85.25
2017-01-27T03:03:34.049Z,84.41
2017-01-27T03:04:40.215Z,84.97
2017-01-27T03:05:44.433Z,84.97
2017-01-27T03:06:49.640Z,84.69
2017-01-27T03:07:55.797Z,85.06
2017-01-27T03:08:59.996Z,84.59
2017-01-27T03:10:05.190Z,84.78
2017-01-27T03:11:10.383Z,85.16
2017-01-27T03:12:16.545Z,84.59
2017-01-27T03:13:21.822Z,84.69
2017-01-27T03:14:27.029Z,84.59
2017-01-27T03:15:32.248Z,84.69
2017-01-27T03:16:38.405Z,84.59
2017-01-27T03:17:44.560Z,85.25
2017-01-27T03:18:48.784Z,85.35
2017-01-27T03:19:52.072Z,84.31
2017-01-27T03:20:55.302Z,84.41
2017-01-27T03:22:00.575Z,84.59
2017-01-27T03:23:05.939Z,84.88
2017-01-27T03:24:12.109Z,84.88
2017-01-27T03:25:18.259Z,84.97
2017-01-27T03:26:23.461Z,84.78
2017-01-27T03:27:29.615Z,85.44
2017-01-27T03:28:34.803Z,85.35
2017-01-27T03:29:39.043Z,85.16
2017-01-27T03:30:43.258Z,85.77
2017-01-27T03:31:49.423Z,85.53
2017-01-27T03:32:54.619Z,85.72
2017-01-27T03:34:00.875Z,85.77
2017-01-27T03:35:06.050Z,86.1
2017-01-27T03:36:10.293Z,85.82
2017-01-27T03:37:15.490Z,85.35
2017-01-27T03:38:20.682Z,85.25
2017-01-27T03:39:25.971Z,85.68
2017-01-27T03:40:31.158Z,85.53
2017-01-27T03:41:36.418Z,85.21
2017-01-27T03:42:40.638Z,85.72
2017-01-27T03:43:46.851Z,85.72
2017-01-27T03:44:53.004Z,85.72
2017-01-27T03:45:59.163Z,85.68
2017-01-27T03:47:05.325Z,85.68
2017-01-27T03:48:10.672Z,85.68
2017-01-27T03:49:16.856Z,85.77
2017-01-27T03:50:21.122Z,86.06
2017-01-27T03:51:25.351Z,86.01
2017-01-27T03:52:30.519Z,85.96
2017-01-27T03:53:36.680Z,85.87
2017-01-27T03:54:42.837Z,85.96
2017-01-27T03:55:48.114Z,85.96
2017-01-27T03:56:52.346Z,86.34
2017-01-27T03:57:57.574Z,85.96
2017-01-27T03:59:01.796Z,86.01
2017-01-27T04:00:08.000Z,85.82
2017-01-27T04:01:13.201Z,85.4
2017-01-27T04:02:19.399Z,85.21
2017-01-27T04:03:24.520Z,85.59
2017-01-27T04:04:29.708Z,85.35
2017-01-27T04:05:35.866Z,85.3
2017-01-27T04:06:42.067Z,85.35
2017-01-27T04:07:48.224Z,85.44
2017-01-27T04:08:54.375Z,84.69
2017-01-27T04:10:00.546Z,85.06
2017-01-27T04:11:02.803Z,85.25
2017-01-27T04:12:08.978Z,85.35
2017-01-27T04:13:13.225Z,84.69
2017-01-27T04:14:18.456Z,84.69
2017-01-27T04:15:24.621Z,84.69
2017-01-27T04:16:28.890Z,84.69
2017-01-27T04:17:34.048Z,84.12
2017-01-27T04:18:38.272Z,84.22
2017-01-27T04:19:43.454Z,84.12
2017-01-27T04:20:47.672Z,84.22
2017-01-27T04:21:52.898Z,84.41
2017-01-27T04:22:59.036Z,84.12
2017-01-27T04:24:04.256Z,83.84
2017-01-27T04:25:10.381Z,83.36
2017-01-27T04:26:16.568Z,83.46
2017-01-27T04:27:21.808Z,83.55
2017-01-27T04:28:27.964Z,83.17
2017-01-27T04:29:33.126Z,83.65
2017-01-27T04:30:38.319Z,83.65
2017-01-27T04:31:44.469Z,83.55
2017-01-27T04:32:50.669Z,83.36
2017-01-27T04:33:55.896Z,83.17
2017-01-27T04:35:01.108Z,83.46
2017-01-27T04:36:06.268Z,83.46
2017-01-27T04:37:12.427Z,83.84
2017-01-27T04:38:18.609Z,83.55
2017-01-27T04:39:24.803Z,83.93
2017-01-27T04:40:30.964Z,83.93
2017-01-27T04:41:35.201Z,84.12
2017-01-27T04:42:41.361Z,84.03
2017-01-27T04:43:45.613Z,84.41
2017-01-27T04:44:50.800Z,84.08
2017-01-27T04:45:56.957Z,84.22
2017-01-27T04:47:01.184Z,84.08
2017-01-27T04:48:06.361Z,84.5
2017-01-27T04:49:12.513Z,84.36
2017-01-27T04:50:16.743Z,84.12
2017-01-27T04:51:22.915Z,84.83
2017-01-27T04:52:28.112Z,84.55
2017-01-27T04:53:33.325Z,84.55
2017-01-27T04:54:38.517Z,84.27
2017-01-27T04:55:41.749Z,84.17
2017-01-27T04:56:47.046Z,84.55
2017-01-27T04:57:52.205Z,84.64
2017-01-27T04:58:58.410Z,84.64
2017-01-27T05:00:03.616Z,84.74
2017-01-27T05:01:08.825Z,85.3
2017-01-27T05:02:14.007Z,84.92
2017-01-27T05:03:19.203Z,84.92
2017-01-27T05:04:25.381Z,84.92
2017-01-27T05:05:30.614Z,85.02
2017-01-27T05:06:35.769Z,85.02
2017-01-27T05:07:40.962Z,84.45
2017-01-27T05:08:47.132Z,85.02
2017-01-27T05:09:53.301Z,84.92
2017-01-27T05:10:59.453Z,84.64
2017-01-27T05:12:04.647Z,84.92
2017-01-27T05:13:10.922Z,85.02
2017-01-27T05:14:16.035Z,84.92
2017-01-27T05:15:22.193Z,85.02
2017-01-27T05:16:26.423Z,84.64
2017-01-27T05:17:31.629Z,84.27
2017-01-27T05:18:36.790Z,84.55
2017-01-27T05:19:41.981Z,84.17
2017-01-27T05:20:48.150Z,84.55
2017-01-27T05:21:54.316Z,84.74
2017-01-27T05:22:58.511Z,84.69
2017-01-27T05:24:03.677Z,84.74
2017-01-27T05:25:09.871Z,84.83
2017-01-27T05:26:15.041Z,84.64
2017-01-27T05:27:19.274Z,84.92
2017-01-27T05:28:25.430Z,84.74
2017-01-27T05:29:31.604Z,84.55
2017-01-27T05:30:35.820Z,84.45
2017-01-27T05:31:41.015Z,84.64
2017-01-27T05:32:47.174Z,85.21
2017-01-27T05:33:52.370Z,85.02
2017-01-27T05:34:58.576Z,84.92
2017-01-27T05:36:04.747Z,84.74
2017-01-27T05:37:09.946Z,84.78
2017-01-27T05:38:16.101Z,84.5
2017-01-27T05:39:22.261Z,84.36
2017-01-27T05:40:28.420Z,84.36
2017-01-27T05:41:32.615Z,83.98
2017-01-27T05:42:36.840Z,83.93
2017-01-27T05:44:49.156Z,84.27
2017-01-27T05:45:55.343Z,84.45
2017-01-27T05:47:00.536Z,84.74
2017-01-27T05:48:05.742Z,84.45
2017-01-27T05:49:09.973Z,84.74
2017-01-27T05:50:15.199Z,84.5
2017-01-27T05:51:21.320Z,84.41
2017-01-27T05:52:27.566Z,84.55
2017-01-27T05:53:32.763Z,84.64
2017-01-27T05:54:38.951Z,84.08
2017-01-27T05:55:45.100Z,84.55
2017-01-27T05:56:50.292Z,84.64
2017-01-27T05:57:56.460Z,84.27
2017-01-27T05:59:01.656Z,84.36
2017-01-27T06:00:06.847Z,84.36
2017-01-27T06:01:13.011Z,84.17
2017-01-27T06:02:19.305Z,84.22
2017-01-27T06:03:22.571Z,84.27
2017-01-27T06:04:28.753Z,83.98
2017-01-27T06:05:32.981Z,84.08
2017-01-27T06:06:39.141Z,84.08
2017-01-27T06:07:45.335Z,84.64
2017-01-27T06:08:49.547Z,84.45
2017-01-27T06:09:55.708Z,84.55
2017-01-27T06:11:00.903Z,84.55
2017-01-27T06:12:06.104Z,84.31
2017-01-27T06:13:12.263Z,84.59
2017-01-27T06:14:18.425Z,84.97
2017-01-27T06:15:24.583Z,84.36
2017-01-27T06:16:29.781Z,84.45
2017-01-27T06:17:35.951Z,84.45
2017-01-27T06:18:41.141Z,84.36
2017-01-27T06:19:46.337Z,84.31
2017-01-27T06:20:52.495Z,84.22
2017-01-27T06:21:58.686Z,84.41
2017-01-27T06:23:03.876Z,84.22
2017-01-27T06:24:10.043Z,84.31
2017-01-27T06:25:15.252Z,83.65
2017-01-27T06:26:21.384Z,83.74
2017-01-27T06:27:27.547Z,83.74
2017-01-27T06:28:33.718Z,84.12
2017-01-27T06:29:39.886Z,83.8
2017-01-27T06:30:46.051Z,84.03
2017-01-27T06:31:51.241Z,83.74
2017-01-27T06:32:55.472Z,83.84
2017-01-27T06:34:00.665Z,84.03
2017-01-27T06:35:04.864Z,83.93
2017-01-27T06:36:11.023Z,84.03
2017-01-27T06:37:17.177Z,83.65
2017-01-27T06:38:22.377Z,83.93
2017-01-27T06:39:27.539Z,83.27
2017-01-27T06:40:33.704Z,83.27
2017-01-27T06:41:37.942Z,83.27
2017-01-27T06:42:44.102Z,82.8
2017-01-27T06:43:49.479Z,82.99
2017-01-27T06:44:54.663Z,82.51
2017-01-27T06:45:58.974Z,82.51
2017-01-27T06:47:04.168Z,83.17
2017-01-27T06:48:09.368Z,82.89
2017-01-27T06:49:15.526Z,83.27
2017-01-27T06:50:20.708Z,83.27
2017-01-27T06:51:25.902Z,82.99
2017-01-27T06:52:31.157Z,82.99
2017-01-27T06:53:36.407Z,82.7
2017-01-27T06:54:42.522Z,82.8
2017-01-27T06:55:48.698Z,83.17
2017-01-27T06:56:54.853Z,82.51
2017-01-27T06:58:01.049Z,82.89
2017-01-27T06:59:07.190Z,82.7
2017-01-27T07:00:13.351Z,82.61
2017-01-27T07:01:19.515Z,82.8
2017-01-27T07:02:25.691Z,82.89
2017-01-27T07:03:30.886Z,82.7
2017-01-27T07:04:36.083Z,83.17
2017-01-27T07:05:41.351Z,82.99
2017-01-27T07:06:46.509Z,82.89
2017-01-27T07:07:51.700Z,82.89
2017-01-27T07:08:56.917Z,82.8
2017-01-27T07:10:02.112Z,82.7
2017-01-27T07:11:08.292Z,83.08
2017-01-27T07:12:12.615Z,82.42
2017-01-27T07:13:17.800Z,81.95
2017-01-27T07:14:21.997Z,81.85
2017-01-27T07:15:28.204Z,81.95
2017-01-27T07:16:33.398Z,81.95
2017-01-27T07:17:39.576Z,81.95
2017-01-27T07:18:44.783Z,81.95
2017-01-27T07:19:50.976Z,81.76
2017-01-27T07:20:57.108Z,81.95
2017-01-27T07:22:03.320Z,81.2
2017-01-27T07:23:08.514Z,81.01
2017-01-27T07:24:12.732Z,81.29
2017-01-27T07:25:18.010Z,81.38
2017-01-27T07:26:23.227Z,80.63
2017-01-27T07:27:29.392Z,80.44
2017-01-27T07:28:33.618Z,80.25
2017-01-27T07:29:39.767Z,80.34
2017-01-27T07:30:44.955Z,80.15
2017-01-27T07:31:51.159Z,79.87
2017-01-27T07:32:56.472Z,79.97
2017-01-27T07:34:01.651Z,79.97
2017-01-27T07:35:06.890Z,79.59
2017-01-27T07:36:11.117Z,79.4
2017-01-27T07:37:16.273Z,79.21
2017-01-27T07:38:22.428Z,78.74
2017-01-27T07:39:28.616Z,78.92
2017-01-27T07:40:33.802Z,79.02
2017-01-27T07:41:39.961Z,78.92
2017-01-27T07:42:45.166Z,78.64
2017-01-27T07:43:50.478Z,78.78
2017-01-27T07:44:56.648Z,78.31
2017-01-27T07:46:00.928Z,78.5
2017-01-27T07:47:07.199Z,78.02
2017-01-27T07:48:12.392Z,78.02
2017-01-27T07:49:17.592Z,78.31
2017-01-27T07:50:23.764Z,77.36
2017-01-27T07:51:27.965Z,77.26
2017-01-27T07:52:32.193Z,76.79
2017-01-27T07:53:37.386Z,76.51
2017-01-27T07:54:43.552Z,76.89
2017-01-27T07:55:48.750Z,76.23
2017-01-27T07:56:53.935Z,76.32
2017-01-27T07:57:59.130Z,75.66
2017-01-27T07:59:04.331Z,75
2017-01-27T08:00:10.618Z,74.71
2017-01-27T08:01:15.714Z,74.34
2017-01-27T08:02:19.932Z,73.9
2017-01-27T08:03:25.133Z,74.28
2017-01-27T08:04:29.374Z,73.43
2017-01-27T08:05:34.594Z,73.52
2017-01-27T08:06:39.801Z,73.05
2017-01-27T08:07:45.961Z,72.96
2017-01-27T08:08:51.126Z,72.3
2017-01-27T08:09:56.337Z,72.2
2017-01-27T08:11:02.519Z,71.73
2017-01-27T08:12:07.683Z,71.01
2017-01-27T08:13:12.875Z,70.16
2017-01-27T08:14:19.051Z,69.4
2017-01-27T08:15:23.244Z,68.74
2017-01-27T08:16:29.412Z,68.08
2017-01-27T08:17:33.682Z,67.32
2017-01-27T08:18:39.811Z,67.6
2017-01-27T08:19:45.980Z,67.41
2017-01-27T08:20:52.151Z,67.26
2017-01-27T08:21:57.349Z,67.07
2017-01-27T08:23:03.529Z,66.69
2017-01-27T08:24:09.699Z,66.5
2017-01-27T08:26:21.078Z,65.47
2017-01-27T08:27:26.285Z,65.84
2017-01-27T08:28:31.483Z,65.66
2017-01-27T08:29:36.725Z,65.37
2017-01-27T08:30:41.862Z,65.37
2017-01-27T08:31:47.056Z,65.28
2017-01-27T08:32:52.225Z,64.61
2017-01-27T08:33:58.387Z,64.42
2017-01-27T08:35:04.580Z,64.42
2017-01-27T08:36:09.784Z,64.61
2017-01-27T08:37:13.996Z,64.8
2017-01-27T08:38:19.197Z,64.8
2017-01-27T08:39:25.368Z,64.61
2017-01-27T08:40:30.567Z,64.71
2017-01-27T08:41:36.722Z,64.8
2017-01-27T08:42:42.904Z,64.42
2017-01-27T08:43:47.168Z,63.95
2017-01-27T08:44:53.338Z,63.95
2017-01-27T08:45:59.513Z,63.76
2017-01-27T08:47:03.743Z,63.98
2017-01-27T08:48:10.050Z,64.07
2017-01-27T08:49:14.290Z,63.32
2017-01-27T08:50:19.527Z,62.85
2017-01-27T08:51:24.695Z,62.47
2017-01-27T08:52:29.893Z,61.9
2017-01-27T08:53:35.098Z,62.37
2017-01-27T08:54:41.261Z,61.9
2017-01-27T08:55:47.423Z,61.33
2017-01-27T08:56:51.663Z,61.8
2017-01-27T08:57:57.821Z,62.18
2017-01-27T08:59:03.990Z,62.18
2017-01-27T09:00:09.196Z,62.18
2017-01-27T09:01:15.390Z,61.52
2017-01-27T09:02:20.564Z,61.8
2017-01-27T09:03:25.795Z,62.47
2017-01-27T09:04:31.945Z,62.66
2017-01-27T09:05:38.119Z,62.37
2017-01-27T09:06:44.321Z,62.18
2017-01-27T09:07:50.496Z,62.28
2017-01-27T09:08:56.666Z,62.94
2017-01-27T09:10:02.908Z,62.09
2017-01-27T09:11:08.068Z,62.37
2017-01-27T09:12:14.237Z,62.37
2017-01-27T09:13:19.437Z,61.33
2017-01-27T09:14:22.706Z,60.99
2017-01-27T09:15:28.868Z,60.7
2017-01-27T09:16:34.072Z,60.51
2017-01-27T09:17:40.236Z,60.13
2017-01-27T09:18:45.504Z,60.13
2017-01-27T09:19:50.753Z,59.09
2017-01-27T09:20:53.984Z,59.28
2017-01-27T09:21:59.263Z,59.09
2017-01-27T09:23:04.465Z,59.38
2017-01-27T09:24:09.664Z,59.66
2017-01-27T09:25:15.829Z,59.09
2017-01-27T09:26:21.030Z,58.62
2017-01-27T09:27:26.231Z,58.81
2017-01-27T09:28:31.457Z,58.05
2017-01-27T09:29:36.664Z,58.71
2017-01-27T09:30:41.937Z,58.36
2017-01-27T09:31:48.063Z,58.45
2017-01-27T09:32:53.243Z,57.51
2017-01-27T09:33:59.424Z,57.7
2017-01-27T09:35:04.630Z,57.13
2017-01-27T09:36:10.817Z,57.32
2017-01-27T09:37:16.001Z,57.23
2017-01-27T09:38:20.210Z,57.98
2017-01-27T09:39:23.490Z,58.55
2017-01-27T09:40:28.709Z,58.62
2017-01-27T09:41:34.889Z,58.33
2017-01-27T09:42:40.095Z,58.62
2017-01-27T09:43:44.306Z,59.38
2017-01-27T09:44:50.481Z,59.19
2017-01-27T09:45:53.721Z,58.9
2017-01-27T09:46:59.890Z,58.43
2017-01-27T09:48:05.096Z,58.81
2017-01-27T09:49:11.333Z,58.62
2017-01-27T09:50:17.504Z,58.24
2017-01-27T09:51:22.700Z,58.05
2017-01-27T09:52:27.900Z,57.98
2017-01-27T09:53:33.095Z,58.07
2017-01-27T09:54:39.260Z,57.89
2017-01-27T09:55:44.480Z,57.79
2017-01-27T09:56:49.720Z,57.7
2017-01-27T09:57:54.889Z,57.89
2017-01-27T09:59:01.050Z,57.7
2017-01-27T10:00:07.216Z,57.79
2017-01-27T10:01:12.415Z,57.42
2017-01-27T10:02:17.628Z,56.94
2017-01-27T10:03:21.901Z,57.13
2017-01-27T10:04:27.060Z,56.46
2017-01-27T10:05:31.376Z,55.99
2017-01-27T10:06:35.621Z,55.8
2017-01-27T10:07:39.871Z,55.9
2017-01-27T10:08:45.098Z,55.83
2017-01-27T10:09:51.257Z,55.55
2017-01-27T10:10:56.457Z,54.6
2017-01-27T10:12:02.627Z,54.98
2017-01-27T10:13:08.844Z,54.6
2017-01-27T10:14:15.136Z,54.32
2017-01-27T10:15:20.459Z,54.22
2017-01-27T10:16:26.615Z,54.13
2017-01-27T10:17:32.800Z,53.84
2017-01-27T10:18:37.008Z,53.27
2017-01-27T10:19:43.181Z,53.27
2017-01-27T10:20:49.350Z,53.56
2017-01-27T10:21:54.565Z,53.49
2017-01-27T10:22:58.791Z,53.27
2017-01-27T10:24:05.018Z,53.3
2017-01-27T10:25:09.252Z,53.3
2017-01-27T10:26:15.432Z,53.18
2017-01-27T10:27:21.610Z,53.58
2017-01-27T10:28:27.790Z,53.46
2017-01-27T10:29:33.951Z,53.46
2017-01-27T10:30:40.128Z,53.49
2017-01-27T10:31:46.309Z,53.11
2017-01-27T10:32:50.549Z,52.64
2017-01-27T10:33:55.751Z,52.35
2017-01-27T10:35:00.959Z,52.26
2017-01-27T10:36:07.109Z,51.5
2017-01-27T10:37:11.352Z,51.87
2017-01-27T10:38:14.622Z,52.26
2017-01-27T10:39:20.784Z,52.92
2017-01-27T10:40:25.013Z,53.27
2017-01-27T10:41:31.186Z,53.08
2017-01-27T10:42:36.360Z,54.13
2017-01-27T10:43:42.672Z,53.94
2017-01-27T10:44:47.840Z,54.22
2017-01-27T10:45:52.081Z,54.06
2017-01-27T10:46:57.279Z,53.2
2017-01-27T10:48:02.460Z,53.2
2017-01-27T10:49:06.701Z,52.26
2017-01-27T10:50:11.881Z,52.09
2017-01-27T10:51:17.072Z,51.43
2017-01-27T10:52:22.307Z,51.24
2017-01-27T10:53:26.543Z,51.24
2017-01-27T10:54:31.772Z,50.95
2017-01-27T10:55:36.946Z,50.76
2017-01-27T10:56:41.238Z,50.95
2017-01-27T10:57:46.407Z,50.95
2017-01-27T10:58:51.606Z,50.38
2017-01-27T10:59:56.867Z,50.2
2017-01-27T11:01:03.044Z,50.38
2017-01-27T11:02:08.277Z,51.05
2017-01-27T11:03:13.472Z,50.57
2017-01-27T11:04:18.793Z,50.86
2017-01-27T11:05:22.938Z,50.95
2017-01-27T11:06:29.109Z,51.24
2017-01-27T11:07:35.286Z,51.14
2017-01-27T11:08:41.452Z,50.95
2017-01-27T11:09:46.659Z,51.24
2017-01-27T11:10:52.834Z,50.95
2017-01-27T11:11:58.033Z,51.05
2017-01-27T11:13:04.210Z,51.12
2017-01-27T11:14:09.385Z,51.78
2017-01-27T11:15:15.554Z,52.06
2017-01-27T11:16:20.731Z,52.26
2017-01-27T11:17:23.963Z,52.64
2017-01-27T11:18:29.149Z,52.83
2017-01-27T11:19:34.362Z,53.49
2017-01-27T11:20:40.542Z,53.96
2017-01-27T11:21:46.717Z,54.15
2017-01-27T11:22:52.949Z,53.96
2017-01-27T11:23:59.118Z,53.96
2017-01-27T11:25:04.327Z,53.96
2017-01-27T11:26:09.524Z,53.87
2017-01-27T11:27:15.697Z,54.06
2017-01-27T11:28:21.873Z,54.15
2017-01-27T11:29:27.084Z,54.15
2017-01-27T11:30:31.340Z,54.06
2017-01-27T11:31:36.523Z,54.25
2017-01-27T11:32:42.685Z,54.25
2017-01-27T11:33:46.922Z,54.25
2017-01-27T11:34:53.097Z,54.06
2017-01-27T11:35:58.302Z,53.96
2017-01-27T11:37:02.525Z,53.96
2017-01-27T11:38:07.751Z,53.77
2017-01-27T11:39:13.015Z,53.96
2017-01-27T11:40:19.154Z,54.06
2017-01-27T11:41:24.372Z,53.96
2017-01-27T11:42:29.600Z,53.77
2017-01-27T11:43:35.758Z,54.15
2017-01-27T11:44:40.958Z,53.96
2017-01-27T11:45:46.151Z,54.15
2017-01-27T11:46:52.329Z,54.34
2017-01-27T11:47:56.619Z,54.25
2017-01-27T11:49:02.811Z,54.44
2017-01-27T11:50:07.064Z,53.96
2017-01-27T11:51:12.217Z,53.87
2017-01-27T11:52:17.419Z,53.96
2017-01-27T11:53:21.653Z,54.27
2017-01-27T11:54:27.860Z,54.08
2017-01-27T11:55:33.024Z,54.18
2017-01-27T11:56:38.231Z,53.7
2017-01-27T11:57:44.396Z,53.8
2017-01-27T11:58:50.559Z,53.89
2017-01-27T11:59:56.733Z,53.89
2017-01-27T12:01:02.955Z,53.99
2017-01-27T12:02:09.122Z,54.27
2017-01-27T12:03:14.300Z,54.08
2017-01-27T12:04:19.498Z,53.8
2017-01-27T12:05:24.713Z,53.8
2017-01-27T12:06:29.919Z,54.08
2017-01-27T12:07:36.100Z,53.8
2017-01-27T12:08:42.271Z,53.7
2017-01-27T12:09:48.445Z,53.33
2017-01-27T12:10:54.624Z,53.14
2017-01-27T12:12:00.803Z,53.33
2017-01-27T12:13:06.005Z,53.42
2017-01-27T12:14:11.215Z,53.23
2017-01-27T12:15:17.401Z,53.16
2017-01-27T12:16:23.575Z,53.16
2017-01-27T12:17:28.774Z,52.97
2017-01-27T12:18:34.011Z,53.26
2017-01-27T12:19:39.177Z,53.07
2017-01-27T12:20:45.340Z,52.69
2017-01-27T12:21:50.544Z,52.87
2017-01-27T12:22:55.735Z,52.5
2017-01-27T12:24:00.942Z,52.31
2017-01-27T12:25:06.114Z,52.59
2017-01-27T12:26:11.315Z,52.22
2017-01-27T12:27:17.484Z,52.87
2017-01-27T12:28:23.658Z,52.22
2017-01-27T12:29:28.938Z,52.78
2017-01-27T12:30:33.159Z,52.31
2017-01-27T12:31:38.360Z,52.4
2017-01-27T12:32:43.555Z,52.69
2017-01-27T12:33:48.756Z,53.26
2017-01-27T12:34:54.991Z,53.54
2017-01-27T12:36:01.228Z,53.45
2017-01-27T12:37:06.497Z,53.07
2017-01-27T12:38:09.683Z,53.07
2017-01-27T12:39:14.988Z,53.07
2017-01-27T12:40:21.150Z,53.64
2017-01-27T12:41:26.341Z,53.07
2017-01-27T12:42:31.600Z,53.35
2017-01-27T12:43:37.835Z,53.26
2017-01-27T12:44:42.040Z,53.26
2017-01-27T12:45:48.220Z,52.97
2017-01-27T12:46:54.397Z,52.87
2017-01-27T12:48:00.588Z,52.97
2017-01-27T12:49:04.823Z,52.69
2017-01-27T12:50:09.113Z,52.69
2017-01-27T12:51:14.271Z,52.87
2017-01-27T12:52:20.437Z,53.07
2017-01-27T12:53:26.602Z,53.16
2017-01-27T12:54:32.792Z,53.07
2017-01-27T12:55:39.005Z,53.26
2017-01-27T12:56:44.159Z,53.26
2017-01-27T12:57:50.335Z,53.64
2017-01-27T12:58:55.534Z,53.35
2017-01-27T13:00:00.709Z,53.35
2017-01-27T13:01:05.906Z,53.45
2017-01-27T13:02:11.141Z,53.45
2017-01-27T13:03:16.329Z,53.54
2017-01-27T13:04:22.492Z,53.64
2017-01-27T13:05:27.696Z,53.35
2017-01-27T13:06:32.884Z,53.38
2017-01-27T13:07:39.059Z,53.54
2017-01-27T13:08:44.270Z,53.35
2017-01-27T13:09:50.439Z,54.11
2017-01-27T13:10:55.642Z,53.54
2017-01-27T13:12:00.856Z,53.64
2017-01-27T13:13:05.073Z,53.83
2017-01-27T13:14:10.286Z,54.11
2017-01-27T13:15:15.484Z,54.11
2017-01-27T13:16:20.692Z,54.3
2017-01-27T13:17:26.856Z,53.83
2017-01-27T13:18:33.037Z,54.21
2017-01-27T13:19:39.202Z,54.58
2017-01-27T13:20:45.397Z,54.68
2017-01-27T13:21:49.670Z,54.87
2017-01-27T13:22:54.884Z,54.78
2017-01-27T13:23:59.119Z,54.87
2017-01-27T13:25:05.317Z,54.87
2017-01-27T13:26:10.476Z,55.25
2017-01-27T13:27:16.662Z,55.44
2017-01-27T13:28:22.841Z,55.82
2017-01-27T13:29:29.167Z,55.44
2017-01-27T13:30:34.372Z,55.82
2017-01-27T13:31:40.556Z,56.1
2017-01-27T13:32:45.775Z,56.1
2017-01-27T13:33:49.984Z,56.1
2017-01-27T13:34:56.161Z,56.58
2017-01-27T13:36:00.401Z,56.68
2017-01-27T13:37:06.673Z,56.49
2017-01-27T13:38:11.755Z,56.49
2017-01-27T13:39:17.968Z,57.15
2017-01-27T13:40:23.201Z,57.24
2017-01-27T13:41:29.338Z,56.77
2017-01-27T13:42:35.532Z,57.06
2017-01-27T13:43:40.781Z,57.06
2017-01-27T13:44:46.951Z,57.06
2017-01-27T13:45:53.118Z,57.15
2017-01-27T13:46:58.327Z,57.34
2017-01-27T13:48:04.550Z,56.87
2017-01-27T13:49:10.718Z,57.06
2017-01-27T13:50:16.967Z,57.15
2017-01-27T13:52:29.309Z,57.06
2017-01-27T13:53:33.543Z,56.87
2017-01-27T13:54:39.718Z,57.15
2017-01-27T13:55:45.944Z,57.06
2017-01-27T13:56:52.118Z,56.87
2017-01-27T13:57:57.337Z,57.06
2017-01-27T13:59:02.570Z,57.15
2017-01-27T14:00:08.711Z,57.06
2017-01-27T14:01:14.874Z,57.15
2017-01-27T14:02:20.211Z,56.96
2017-01-27T14:03:26.385Z,57.06
2017-01-27T14:04:31.640Z,56.96
2017-01-27T14:05:36.893Z,57.06
2017-01-27T14:06:43.017Z,56.87
2017-01-27T14:07:49.188Z,56.77
2017-01-27T14:08:54.389Z,56.96
2017-01-27T14:10:00.673Z,57.06